sensor_id;sensor_type;location;lat;lon;timestamp;pressure;altitude;pressure_sealevel;temperature;humidity
54588;BME280;40484;50.198;19.576;2023-05-15T07:05:53;100722.02;;;18.92;55.08
54588;BME280;40484;50.198;19.576;2023-05-15T07:10:55;100723.82;;;18.89;54.67
54588;BME280;40484;50.198;19.576;2023-05-15T07:15:56;100726.93;;;19.01;54.38
54588;BME280;40484;50.198;19.576;2023-05-15T07:20:58;100724.02;;;19.12;54.17
54588;BME280;40484;50.198;19.576;2023-05-15T07:25:59;100731.09;;;19.26;53.95
54588;BME280;40484;50.198;19.576;2023-05-15T07:31:01;100734.66;;;19.32;53.92
54588;BME280;40484;50.198;19.576;2023-05-15T07:36:03;100730.72;;;19.41;53.62
54588;BME280;40484;50.198;19.576;2023-05-15T07:41:05;100732.99;;;19.37;53.13
54588;BME280;40484;50.198;19.576;2023-05-15T07:46:06;100734.89;;;19.20;53.60
54588;BME280;40484;50.198;19.576;2023-05-15T07:51:08;100742.27;;;19.26;53.54
54588;BME280;40484;50.198;19.576;2023-05-15T07:56:09;100748.18;;;19.13;53.69
54588;BME280;40484;50.198;19.576;2023-05-15T08:01:11;100741.54;;;19.22;53.41
54588;BME280;40484;50.198;19.576;2023-05-15T08:06:13;100748.16;;;19.26;52.91
54588;BME280;40484;50.198;19.576;2023-05-15T08:11:14;100746.60;;;19.28;53.05
54588;BME280;40484;50.198;19.576;2023-05-15T08:16:17;100750.69;;;19.37;52.98
54588;BME280;40484;50.198;19.576;2023-05-15T08:21:18;100754.00;;;19.39;52.96
54588;BME280;40484;50.198;19.576;2023-05-15T08:26:20;100757.07;;;19.01;53.79
54588;BME280;40484;50.198;19.576;2023-05-15T08:31:21;100758.54;;;19.24;53.42
54588;BME280;40484;50.198;19.576;2023-05-15T08:36:23;100755.13;;;19.37;53.08
54588;BME280;40484;50.198;19.576;2023-05-15T08:41:31;100760.06;;;19.40;53.32
54588;BME280;40484;50.198;19.576;2023-05-15T08:46:58;100761.58;;;19.56;53.06
54588;BME280;40484;50.198;19.576;2023-05-15T08:52:00;100755.48;;;19.67;53.03
54588;BME280;40484;50.198;19.576;2023-05-15T08:57:01;100757.27;;;19.76;52.99
54588;BME280;40484;50.198;19.576;2023-05-15T09:02:03;100760.75;;;19.84;52.73
54588;BME280;40484;50.198;19.576;2023-05-15T09:07:06;100761.11;;;19.90;52.28
54588;BME280;40484;50.198;19.576;2023-05-15T09:12:13;100762.42;;;19.78;51.82
54588;BME280;40484;50.198;19.576;2023-05-15T09:17:14;100763.55;;;19.98;51.85
54588;BME280;40484;50.198;19.576;2023-05-15T09:22:18;100776.88;;;19.92;50.98
54588;BME280;40484;50.198;19.576;2023-05-15T09:27:25;100765.13;;;20.01;50.86
54588;BME280;40484;50.198;19.576;2023-05-15T09:32:26;100765.59;;;19.95;50.62
54588;BME280;40484;50.198;19.576;2023-05-15T09:37:30;100766.83;;;20.16;50.97
54588;BME280;40484;50.198;19.576;2023-05-15T09:42:33;100780.07;;;20.22;50.95
54588;BME280;40484;50.198;19.576;2023-05-15T09:47:35;100783.89;;;20.12;50.79
54588;BME280;40484;50.198;19.576;2023-05-15T09:52:37;100802.16;;;20.04;50.76
54588;BME280;40484;50.198;19.576;2023-05-15T09:57:39;100803.06;;;20.07;50.93
54588;BME280;40484;50.198;19.576;2023-05-15T10:02:41;100795.27;;;20.07;50.96
54588;BME280;40484;50.198;19.576;2023-05-15T10:07:42;100801.70;;;20.10;50.96
54588;BME280;40484;50.198;19.576;2023-05-15T10:12:44;100818.30;;;20.01;51.12
54588;BME280;40484;50.198;19.576;2023-05-15T10:18:15;100809.45;;;20.21;51.02
54588;BME280;40484;50.198;19.576;2023-05-15T10:23:17;100810.18;;;20.19;51.10
54588;BME280;40484;50.198;19.576;2023-05-15T10:28:21;100808.34;;;20.23;50.76
54588;BME280;40484;50.198;19.576;2023-05-15T10:33:24;100821.31;;;20.15;51.12
54588;BME280;40484;50.198;19.576;2023-05-15T10:38:26;100822.34;;;19.83;51.71
54588;BME280;40484;50.198;19.576;2023-05-15T10:43:29;100819.02;;;19.53;52.34
54588;BME280;40484;50.198;19.576;2023-05-15T10:48:32;100830.26;;;19.63;51.97
54588;BME280;40484;50.198;19.576;2023-05-15T10:53:34;100810.66;;;19.69;51.72
54588;BME280;40484;50.198;19.576;2023-05-15T10:58:36;100800.30;;;19.64;51.68
54588;BME280;40484;50.198;19.576;2023-05-15T11:03:37;100798.80;;;19.47;50.93
54588;BME280;40484;50.198;19.576;2023-05-15T11:08:40;100789.37;;;19.56;51.14
54588;BME280;40484;50.198;19.576;2023-05-15T11:25:05;100794.07;;;19.73;50.86
54588;BME280;40484;50.198;19.576;2023-05-15T11:30:16;100782.66;;;20.00;51.13
54588;BME280;40484;50.198;19.576;2023-05-15T11:35:31;100768.48;;;20.37;50.83
54588;BME280;40484;50.198;19.576;2023-05-15T11:40:51;100777.72;;;20.59;50.68
54588;BME280;40484;50.198;19.576;2023-05-15T11:46:06;100793.31;;;20.55;49.83
54588;BME280;40484;50.198;19.576;2023-05-15T11:51:15;100790.05;;;20.62;49.81
54588;BME280;40484;50.198;19.576;2023-05-15T11:56:18;100788.29;;;20.69;49.73
54588;BME280;40484;50.198;19.576;2023-05-15T12:01:20;100777.79;;;21.07;49.72
54588;BME280;40484;50.198;19.576;2023-05-15T12:06:22;100759.84;;;20.92;48.28
54588;BME280;40484;50.198;19.576;2023-05-15T12:11:51;100742.60;;;21.04;48.02
54588;BME280;40484;50.198;19.576;2023-05-15T12:16:52;100764.63;;;20.69;47.64
54588;BME280;40484;50.198;19.576;2023-05-15T12:21:54;100772.53;;;20.52;48.42
54588;BME280;40484;50.198;19.576;2023-05-15T12:26:56;100766.02;;;20.71;48.91
54588;BME280;40484;50.198;19.576;2023-05-15T12:31:57;100754.60;;;20.67;49.37
54588;BME280;40484;50.198;19.576;2023-05-15T12:36:59;100745.89;;;20.68;50.62
54588;BME280;40484;50.198;19.576;2023-05-15T12:42:02;100758.75;;;20.83;49.61
54588;BME280;40484;50.198;19.576;2023-05-15T12:47:04;100760.93;;;21.15;50.57
54588;BME280;40484;50.198;19.576;2023-05-15T12:52:09;100752.72;;;21.24;48.99
54588;BME280;40484;50.198;19.576;2023-05-15T12:57:12;100749.98;;;21.43;48.93
54588;BME280;40484;50.198;19.576;2023-05-15T13:02:15;100749.91;;;21.02;48.36
54588;BME280;40484;50.198;19.576;2023-05-15T13:07:17;100765.20;;;20.91;48.04
54588;BME280;40484;50.198;19.576;2023-05-15T13:12:18;100759.75;;;20.89;48.50
54588;BME280;40484;50.198;19.576;2023-05-15T13:17:20;100767.32;;;20.95;48.08
54588;BME280;40484;50.198;19.576;2023-05-15T13:22:22;100781.22;;;20.04;51.17
54588;BME280;40484;50.198;19.576;2023-05-15T13:27:23;100778.03;;;19.05;53.03
54588;BME280;40484;50.198;19.576;2023-05-15T13:32:25;100787.59;;;18.96;55.71
54588;BME280;40484;50.198;19.576;2023-05-15T13:37:26;100769.77;;;18.99;53.52
54588;BME280;40484;50.198;19.576;2023-05-15T13:42:28;100767.73;;;19.55;54.00
54588;BME280;40484;50.198;19.576;2023-05-15T13:47:30;100776.94;;;20.01;53.84
54588;BME280;40484;50.198;19.576;2023-05-15T13:52:57;100766.06;;;20.09;53.04
54588;BME280;40484;50.198;19.576;2023-05-15T13:57:59;100777.41;;;19.99;53.03
54588;BME280;40484;50.198;19.576;2023-05-15T14:03:01;100773.62;;;19.83;54.39
54588;BME280;40484;50.198;19.576;2023-05-15T14:08:03;100771.26;;;20.00;54.37
54588;BME280;40484;50.198;19.576;2023-05-15T14:13:04;100779.40;;;20.18;53.14
54588;BME280;40484;50.198;19.576;2023-05-15T14:18:06;100784.07;;;20.02;54.22
54588;BME280;40484;50.198;19.576;2023-05-15T14:23:08;100789.95;;;20.28;52.25
54588;BME280;40484;50.198;19.576;2023-05-15T14:28:09;100806.72;;;19.67;52.04
54588;BME280;40484;50.198;19.576;2023-05-15T14:33:12;100802.14;;;19.42;51.98
54588;BME280;40484;50.198;19.576;2023-05-15T14:38:13;100800.45;;;19.48;52.35
54588;BME280;40484;50.198;19.576;2023-05-15T14:43:15;100801.92;;;19.83;52.66
54588;BME280;40484;50.198;19.576;2023-05-15T14:48:17;100802.41;;;19.70;51.89
54588;BME280;40484;50.198;19.576;2023-05-15T14:53:19;100792.51;;;19.86;50.41
54588;BME280;40484;50.198;19.576;2023-05-15T14:58:20;100778.22;;;20.00;50.80
54588;BME280;40484;50.198;19.576;2023-05-15T15:03:22;100780.82;;;20.20;50.10
54588;BME280;40484;50.198;19.576;2023-05-15T15:08:24;100773.24;;;20.03;49.72
54588;BME280;40484;50.198;19.576;2023-05-15T15:13:26;100781.90;;;19.71;50.87
54588;BME280;40484;50.198;19.576;2023-05-15T15:18:30;100791.14;;;19.67;51.11
54588;BME280;40484;50.198;19.576;2023-05-15T15:23:31;100779.64;;;20.02;50.31
54588;BME280;40484;50.198;19.576;2023-05-15T15:28:33;100783.88;;;19.96;50.86
54588;BME280;40484;50.198;19.576;2023-05-15T15:33:34;100786.68;;;20.11;50.59
54588;BME280;40484;50.198;19.576;2023-05-15T15:39:02;100800.18;;;20.36;50.45
54588;BME280;40484;50.198;19.576;2023-05-15T15:44:04;100791.72;;;20.32;50.88
54588;BME280;40484;50.198;19.576;2023-05-15T15:49:05;100790.73;;;19.88;49.82
54588;BME280;40484;50.198;19.576;2023-05-15T15:54:07;100798.81;;;19.75;49.71
54588;BME280;40484;50.198;19.576;2023-05-15T15:59:09;100802.19;;;19.41;50.89
54588;BME280;40484;50.198;19.576;2023-05-15T16:04:10;100804.34;;;19.10;50.42
54588;BME280;40484;50.198;19.576;2023-05-15T16:09:12;100818.95;;;19.20;50.86
54588;BME280;40484;50.198;19.576;2023-05-15T16:14:14;100810.39;;;19.41;50.86
54588;BME280;40484;50.198;19.576;2023-05-15T16:19:16;100825.54;;;19.48;50.81
54588;BME280;40484;50.198;19.576;2023-05-15T16:24:17;100813.77;;;19.76;50.32
54588;BME280;40484;50.198;19.576;2023-05-15T16:29:19;100821.68;;;20.17;49.94
54588;BME280;40484;50.198;19.576;2023-05-15T16:34:21;100819.87;;;20.57;49.29
54588;BME280;40484;50.198;19.576;2023-05-15T16:39:24;100820.20;;;20.84;48.58
54588;BME280;40484;50.198;19.576;2023-05-15T16:44:25;100825.52;;;20.93;48.23
54588;BME280;40484;50.198;19.576;2023-05-15T16:49:27;100822.77;;;20.88;48.49
54588;BME280;40484;50.198;19.576;2023-05-15T16:54:29;100830.76;;;20.27;50.17
54588;BME280;40484;50.198;19.576;2023-05-15T16:59:31;100845.40;;;19.82;50.30
54588;BME280;40484;50.198;19.576;2023-05-15T17:04:32;100854.87;;;19.23;52.41
54588;BME280;40484;50.198;19.576;2023-05-15T17:09:36;100860.76;;;19.23;52.96
54588;BME280;40484;50.198;19.576;2023-05-15T17:14:39;100863.95;;;19.11;53.29
54588;BME280;40484;50.198;19.576;2023-05-15T17:19:41;100857.08;;;19.21;51.97
54588;BME280;40484;50.198;19.576;2023-05-15T17:25:07;100856.30;;;19.83;50.42
54588;BME280;40484;50.198;19.576;2023-05-15T17:30:09;100877.66;;;19.46;51.07
54588;BME280;40484;50.198;19.576;2023-05-15T17:35:11;100887.12;;;19.17;51.27
54588;BME280;40484;50.198;19.576;2023-05-15T17:40:13;100897.05;;;18.51;49.09
54588;BME280;40484;50.198;19.576;2023-05-15T17:45:14;100897.95;;;18.69;48.98
54588;BME280;40484;50.198;19.576;2023-05-15T17:50:16;100892.69;;;18.83;48.42
54588;BME280;40484;50.198;19.576;2023-05-15T17:55:17;100897.55;;;18.69;48.28
54588;BME280;40484;50.198;19.576;2023-05-15T18:00:19;100901.38;;;18.61;48.19
54588;BME280;40484;50.198;19.576;2023-05-15T18:05:21;100912.72;;;18.48;48.28
54588;BME280;40484;50.198;19.576;2023-05-15T18:10:23;100910.91;;;18.53;48.18
54588;BME280;40484;50.198;19.576;2023-05-15T18:15:25;100924.02;;;18.64;48.13
54588;BME280;40484;50.198;19.576;2023-05-15T18:20:26;100934.95;;;18.64;48.01
54588;BME280;40484;50.198;19.576;2023-05-15T18:25:28;100938.15;;;18.63;47.94
54588;BME280;40484;50.198;19.576;2023-05-15T18:30:29;100944.15;;;18.53;48.20
54588;BME280;40484;50.198;19.576;2023-05-15T18:35:31;100957.16;;;18.06;49.07
54588;BME280;40484;50.198;19.576;2023-05-15T18:40:32;100956.85;;;18.08;49.15
54588;BME280;40484;50.198;19.576;2023-05-15T18:45:34;100966.70;;;18.10;49.00
54588;BME280;40484;50.198;19.576;2023-05-15T18:50:36;100969.37;;;17.65;49.18
54588;BME280;40484;50.198;19.576;2023-05-15T18:55:38;100983.55;;;17.70;49.56
54588;BME280;40484;50.198;19.576;2023-05-15T19:00:40;100990.23;;;17.48;49.85
54588;BME280;40484;50.198;19.576;2023-05-15T19:05:41;101003.64;;;17.33;49.95
54588;BME280;40484;50.198;19.576;2023-05-15T19:11:11;101000.17;;;17.38;49.75
54588;BME280;40484;50.198;19.576;2023-05-15T19:16:12;100999.41;;;17.34;49.87
54588;BME280;40484;50.198;19.576;2023-05-15T19:21:14;101009.29;;;17.33;49.84
54588;BME280;40484;50.198;19.576;2023-05-15T19:26:15;101020.58;;;17.10;50.29
54588;BME280;40484;50.198;19.576;2023-05-15T19:31:17;101020.61;;;17.09;50.40
54588;BME280;40484;50.198;19.576;2023-05-15T19:36:19;101022.29;;;17.10;50.11
54588;BME280;40484;50.198;19.576;2023-05-15T19:41:20;101016.55;;;17.37;49.74
54588;BME280;40484;50.198;19.576;2023-05-15T19:46:23;101014.94;;;17.00;50.68
54588;BME280;40484;50.198;19.576;2023-05-15T19:51:24;101014.32;;;17.00;50.65
54588;BME280;40484;50.198;19.576;2023-05-15T19:56:26;101018.88;;;16.93;50.94
54588;BME280;40484;50.198;19.576;2023-05-15T20:01:28;101017.38;;;16.65;51.56
54588;BME280;40484;50.198;19.576;2023-05-15T20:06:29;101024.40;;;16.61;51.75
54588;BME280;40484;50.198;19.576;2023-05-15T20:11:31;101023.73;;;16.83;51.36
54588;BME280;40484;50.198;19.576;2023-05-15T20:16:32;101019.55;;;16.82;51.43
54588;BME280;40484;50.198;19.576;2023-05-15T20:21:34;101022.32;;;16.70;51.83
54588;BME280;40484;50.198;19.576;2023-05-15T20:26:35;101022.65;;;16.74;51.77
54588;BME280;40484;50.198;19.576;2023-05-15T20:31:37;101038.94;;;16.58;52.13
54588;BME280;40484;50.198;19.576;2023-05-15T20:36:40;101050.59;;;16.64;52.14
54588;BME280;40484;50.198;19.576;2023-05-15T20:41:42;101041.05;;;16.48;52.73
54588;BME280;40484;50.198;19.576;2023-05-15T20:46:43;101037.80;;;16.52;52.68
54588;BME280;40484;50.198;19.576;2023-05-15T20:51:45;101038.68;;;16.61;52.42
54588;BME280;40484;50.198;19.576;2023-05-15T20:57:15;101046.95;;;16.56;52.55
54588;BME280;40484;50.198;19.576;2023-05-15T21:02:16;101053.59;;;16.50;52.85
54588;BME280;40484;50.198;19.576;2023-05-15T21:07:18;101065.55;;;16.49;52.88
54588;BME280;40484;50.198;19.576;2023-05-15T21:12:19;101057.34;;;16.51;52.71
54588;BME280;40484;50.198;19.576;2023-05-15T21:17:21;101066.20;;;16.49;52.83
54588;BME280;40484;50.198;19.576;2023-05-15T21:22:22;101067.06;;;16.37;53.22
54588;BME280;40484;50.198;19.576;2023-05-15T21:27:24;101069.41;;;16.24;53.72
54588;BME280;40484;50.198;19.576;2023-05-15T21:32:25;101076.66;;;15.96;54.57
54588;BME280;40484;50.198;19.576;2023-05-15T21:37:27;101075.99;;;15.87;54.98
54588;BME280;40484;50.198;19.576;2023-05-15T21:42:29;101074.13;;;15.98;54.68
54588;BME280;40484;50.198;19.576;2023-05-15T21:47:32;101069.21;;;15.80;55.19
54588;BME280;40484;50.198;19.576;2023-05-15T21:52:33;101079.09;;;15.78;55.35
54588;BME280;40484;50.198;19.576;2023-05-15T21:57:35;101079.80;;;15.86;55.13
54588;BME280;40484;50.198;19.576;2023-05-15T22:02:36;101082.97;;;15.71;55.47
54588;BME280;40484;50.198;19.576;2023-05-15T22:07:38;101092.37;;;15.59;55.85
54588;BME280;40484;50.198;19.576;2023-05-15T22:12:40;101087.37;;;15.44;56.26
54588;BME280;40484;50.198;19.576;2023-05-15T22:17:41;101079.28;;;15.64;55.67
54588;BME280;40484;50.198;19.576;2023-05-15T22:22:43;101085.48;;;15.46;56.09
54588;BME280;40484;50.198;19.576;2023-05-15T22:27:45;101088.50;;;15.39;56.34
54588;BME280;40484;50.198;19.576;2023-05-15T22:32:46;101095.36;;;15.28;56.81
54588;BME280;40484;50.198;19.576;2023-05-15T22:37:48;101090.66;;;15.34;56.67
54588;BME280;40484;50.198;19.576;2023-05-15T22:42:49;101091.42;;;15.39;56.62
54588;BME280;40484;50.198;19.576;2023-05-15T22:48:15;101095.35;;;15.42;56.50
54588;BME280;40484;50.198;19.576;2023-05-15T22:53:17;101102.18;;;15.49;56.12
54588;BME280;40484;50.198;19.576;2023-05-15T22:58:18;101105.30;;;15.36;56.40
54588;BME280;40484;50.198;19.576;2023-05-15T23:03:20;101098.54;;;15.53;55.87
54588;BME280;40484;50.198;19.576;2023-05-15T23:08:21;101105.91;;;15.36;56.16
54588;BME280;40484;50.198;19.576;2023-05-15T23:13:24;101099.33;;;15.43;55.94
54588;BME280;40484;50.198;19.576;2023-05-15T23:18:25;101106.56;;;15.35;56.07
54588;BME280;40484;50.198;19.576;2023-05-15T23:23:27;101108.25;;;15.34;55.92
54588;BME280;40484;50.198;19.576;2023-05-15T23:28:28;101108.50;;;15.32;55.89
54588;BME280;40484;50.198;19.576;2023-05-15T23:33:30;101109.44;;;15.39;55.46
54588;BME280;40484;50.198;19.576;2023-05-15T23:38:31;101103.76;;;15.26;55.76
54588;BME280;40484;50.198;19.576;2023-05-15T23:43:33;101104.47;;;15.20;55.75
54588;BME280;40484;50.198;19.576;2023-05-15T23:48:34;101101.02;;;15.14;55.69
54588;BME280;40484;50.198;19.576;2023-05-15T23:53:36;101114.00;;;15.28;55.26
54588;BME280;40484;50.198;19.576;2023-05-15T23:58:37;101108.20;;;15.38;54.93
